sensor_id;sensor_type;location;lat;lon;timestamp;pressure;altitude;pressure_sealevel;temperature;humidity
50518;BME280;37075;44.084;2.962;2023-10-19T00:02:24;96335.50;;;18.41;69.87
50518;BME280;37075;44.084;2.962;2023-10-19T00:05:11;96321.72;;;18.41;69.50
50518;BME280;37075;44.084;2.962;2023-10-19T00:07:58;96321.28;;;18.43;69.61
50518;BME280;37075;44.084;2.962;2023-10-19T00:10:45;96320.88;;;18.44;69.45
50518;BME280;37075;44.084;2.962;2023-10-19T00:13:32;96318.09;;;18.44;69.08
50518;BME280;37075;44.084;2.962;2023-10-19T00:16:20;96320.88;;;18.44;69.32
50518;BME280;37075;44.084;2.962;2023-10-19T00:19:06;96306.28;;;18.44;69.08
50518;BME280;37075;44.084;2.962;2023-10-19T00:21:54;96299.63;;;18.41;69.01
50518;BME280;37075;44.084;2.962;2023-10-19T00:24:46;96304.78;;;18.39;69.07
50518;BME280;37075;44.084;2.962;2023-10-19T00:27:31;96300.47;;;18.38;68.94
50518;BME280;37075;44.084;2.962;2023-10-19T00:30:17;96297.34;;;18.36;68.73
50518;BME280;37075;44.084;2.962;2023-10-19T00:33:06;96291.09;;;18.32;68.78
50518;BME280;37075;44.084;2.962;2023-10-19T00:36:00;96289.69;;;18.21;69.42
50518;BME280;37075;44.084;2.962;2023-10-19T00:38:53;96277.88;;;18.20;69.78
50518;BME280;37075;44.084;2.962;2023-10-19T00:41:42;96267.25;;;18.18;69.36
50518;BME280;37075;44.084;2.962;2023-10-19T00:44:31;96258.97;;;18.18;69.43
50518;BME280;37075;44.084;2.962;2023-10-19T00:47:22;96266.13;;;18.16;69.18
50518;BME280;37075;44.084;2.962;2023-10-19T00:50:09;96268.88;;;18.16;69.31
50518;BME280;37075;44.084;2.962;2023-10-19T00:53:00;96259.81;;;18.15;69.18
50518;BME280;37075;44.084;2.962;2023-10-19T00:55:49;96237.75;;;18.15;69.15
50518;BME280;37075;44.084;2.962;2023-10-19T00:58:37;96234.19;;;18.15;69.27
50518;BME280;37075;44.084;2.962;2023-10-19T01:01:26;96233.78;;;18.16;69.02
50518;BME280;37075;44.084;2.962;2023-10-19T01:04:13;96212.13;;;18.15;68.96
50518;BME280;37075;44.084;2.962;2023-10-19T01:07:00;96194.00;;;18.14;69.33
50518;BME280;37075;44.084;2.962;2023-10-19T01:09:58;96203.50;;;18.13;69.13
50518;BME280;37075;44.084;2.962;2023-10-19T01:12:45;96217.72;;;18.11;69.13
50518;BME280;37075;44.084;2.962;2023-10-19T01:15:31;96207.50;;;18.08;69.16
50518;BME280;37075;44.084;2.962;2023-10-19T01:18:21;96209.25;;;17.99;70.43
50518;BME280;37075;44.084;2.962;2023-10-19T01:21:14;96207.50;;;17.85;70.59
50518;BME280;37075;44.084;2.962;2023-10-19T01:24:07;96203.22;;;17.80;70.03
50518;BME280;37075;44.084;2.962;2023-10-19T01:26:53;96197.72;;;17.80;69.42
50518;BME280;37075;44.084;2.962;2023-10-19T01:29:41;96180.81;;;17.78;69.39
50518;BME280;37075;44.084;2.962;2023-10-19T01:32:28;96163.91;;;17.76;69.13
50518;BME280;37075;44.084;2.962;2023-10-19T01:35:14;96165.09;;;17.75;69.08
50518;BME280;37075;44.084;2.962;2023-10-19T01:38:00;96158.88;;;17.71;68.94
50518;BME280;37075;44.084;2.962;2023-10-19T01:40:46;96142.75;;;17.70;69.29
50518;BME280;37075;44.084;2.962;2023-10-19T01:43:32;96149.84;;;17.67;68.92
50518;BME280;37075;44.084;2.962;2023-10-19T01:46:17;96149.47;;;17.65;68.80
50518;BME280;37075;44.084;2.962;2023-10-19T01:49:07;96143.22;;;17.61;68.60
50518;BME280;37075;44.084;2.962;2023-10-19T01:51:54;96133.88;;;17.55;68.60
50518;BME280;37075;44.084;2.962;2023-10-19T01:54:38;96129.63;;;17.50;69.00
50518;BME280;37075;44.084;2.962;2023-10-19T01:57:26;96135.19;;;17.47;68.75
50518;BME280;37075;44.084;2.962;2023-10-19T02:00:11;96136.03;;;17.44;68.91
50518;BME280;37075;44.084;2.962;2023-10-19T02:03:07;96123.41;;;17.43;69.16
50518;BME280;37075;44.084;2.962;2023-10-19T02:05:57;96122.63;;;17.42;68.99
50518;BME280;37075;44.084;2.962;2023-10-19T02:09:02;96129.34;;;17.41;68.90
50518;BME280;37075;44.084;2.962;2023-10-19T02:11:54;96121.91;;;17.38;69.80
50518;BME280;37075;44.084;2.962;2023-10-19T02:14:41;96120.41;;;17.34;69.45
50518;BME280;37075;44.084;2.962;2023-10-19T02:17:28;96107.06;;;17.32;69.50
50518;BME280;37075;44.084;2.962;2023-10-19T02:20:15;96093.69;;;17.31;69.55
50518;BME280;37075;44.084;2.962;2023-10-19T02:23:02;96076.38;;;17.30;69.28
50518;BME280;37075;44.084;2.962;2023-10-19T02:25:48;96068.53;;;17.29;69.24
50518;BME280;37075;44.084;2.962;2023-10-19T02:28:35;96065.41;;;17.26;69.01
50518;BME280;37075;44.084;2.962;2023-10-19T02:31:24;96059.53;;;17.24;69.24
50518;BME280;37075;44.084;2.962;2023-10-19T02:34:12;96048.16;;;17.22;69.04
50518;BME280;37075;44.084;2.962;2023-10-19T02:37:00;96052.97;;;17.18;69.11
50518;BME280;37075;44.084;2.962;2023-10-19T02:39:46;96073.09;;;17.12;69.34
50518;BME280;37075;44.084;2.962;2023-10-19T02:42:31;96073.22;;;17.05;70.26
50518;BME280;37075;44.084;2.962;2023-10-19T02:45:17;96067.75;;;17.01;69.56
50518;BME280;37075;44.084;2.962;2023-10-19T02:48:05;96060.88;;;16.86;70.44
50518;BME280;37075;44.084;2.962;2023-10-19T02:50:53;96055.31;;;16.89;70.59
50518;BME280;37075;44.084;2.962;2023-10-19T02:53:40;96051.38;;;16.90;70.21
50518;BME280;37075;44.084;2.962;2023-10-19T02:56:26;96048.63;;;16.90;70.22
50518;BME280;37075;44.084;2.962;2023-10-19T02:59:14;96048.63;;;16.90;70.17
50518;BME280;37075;44.084;2.962;2023-10-19T03:02:01;96041.13;;;16.91;70.07
50518;BME280;37075;44.084;2.962;2023-10-19T03:04:54;96031.72;;;16.92;69.94
50518;BME280;37075;44.084;2.962;2023-10-19T03:07:39;96011.66;;;16.91;69.90
50518;BME280;37075;44.084;2.962;2023-10-19T03:10:27;96000.22;;;16.93;69.66
50518;BME280;37075;44.084;2.962;2023-10-19T03:13:26;95996.69;;;16.92;69.48
50518;BME280;37075;44.084;2.962;2023-10-19T03:16:12;95982.53;;;16.90;69.33
50518;BME280;37075;44.084;2.962;2023-10-19T03:18:57;95973.91;;;16.88;69.40
50518;BME280;37075;44.084;2.962;2023-10-19T03:21:44;95963.72;;;16.85;69.20
50518;BME280;37075;44.084;2.962;2023-10-19T03:24:33;95952.00;;;16.81;68.91
50518;BME280;37075;44.084;2.962;2023-10-19T03:27:25;95953.69;;;16.75;69.14
50518;BME280;37075;44.084;2.962;2023-10-19T03:30:10;95957.69;;;16.71;69.21
50518;BME280;37075;44.084;2.962;2023-10-19T03:33:01;95960.97;;;16.58;69.55
50518;BME280;37075;44.084;2.962;2023-10-19T03:35:46;95949.59;;;16.56;69.27
50518;BME280;37075;44.084;2.962;2023-10-19T03:38:34;95944.97;;;16.50;70.33
50518;BME280;37075;44.084;2.962;2023-10-19T03:41:22;95957.69;;;16.40;70.94
50518;BME280;37075;44.084;2.962;2023-10-19T03:44:11;95962.44;;;16.36;70.56
50518;BME280;37075;44.084;2.962;2023-10-19T03:47:04;95967.22;;;16.32;70.67
50518;BME280;37075;44.084;2.962;2023-10-19T03:49:50;95962.91;;;16.31;70.28
50518;BME280;37075;44.084;2.962;2023-10-19T03:52:36;95970.81;;;16.29;70.51
50518;BME280;37075;44.084;2.962;2023-10-19T03:55:25;95970.13;;;16.21;70.75
50518;BME280;37075;44.084;2.962;2023-10-19T03:58:13;95956.09;;;16.12;71.08
50518;BME280;37075;44.084;2.962;2023-10-19T04:00:59;95954.22;;;16.06;71.95
50518;BME280;37075;44.084;2.962;2023-10-19T04:03:49;95948.72;;;16.06;71.32
50518;BME280;37075;44.084;2.962;2023-10-19T04:06:37;95949.91;;;16.04;71.11
50518;BME280;37075;44.084;2.962;2023-10-19T04:09:23;95962.47;;;16.06;71.12
50518;BME280;37075;44.084;2.962;2023-10-19T04:12:33;95955.81;;;16.03;71.25
50518;BME280;37075;44.084;2.962;2023-10-19T04:15:20;95951.09;;;16.03;71.04
50518;BME280;37075;44.084;2.962;2023-10-19T04:18:06;95955.41;;;16.04;70.80
50518;BME280;37075;44.084;2.962;2023-10-19T04:20:56;95956.19;;;16.05;70.69
50518;BME280;37075;44.084;2.962;2023-10-19T04:23:43;95942.13;;;15.99;70.56
50518;BME280;37075;44.084;2.962;2023-10-19T04:26:30;95944.09;;;15.99;70.36
50518;BME280;37075;44.084;2.962;2023-10-19T04:29:22;95939.00;;;15.97;70.61
50518;BME280;37075;44.084;2.962;2023-10-19T04:32:11;95937.44;;;15.96;70.41
50518;BME280;37075;44.084;2.962;2023-10-19T04:34:59;95936.66;;;15.96;70.30
50518;BME280;37075;44.084;2.962;2023-10-19T04:37:44;95925.28;;;15.94;70.15
50518;BME280;37075;44.084;2.962;2023-10-19T04:40:31;95927.69;;;15.92;70.04
50518;BME280;37075;44.084;2.962;2023-10-19T04:43:17;95931.63;;;15.91;70.04
50518;BME280;37075;44.084;2.962;2023-10-19T04:46:08;95935.97;;;15.88;70.06
50518;BME280;37075;44.084;2.962;2023-10-19T04:48:56;95936.78;;;15.85;69.91
50518;BME280;37075;44.084;2.962;2023-10-19T04:51:41;95939.97;;;15.80;69.89
50518;BME280;37075;44.084;2.962;2023-10-19T04:54:28;95930.59;;;15.78;70.11
50518;BME280;37075;44.084;2.962;2023-10-19T04:57:14;95936.09;;;15.78;69.92
50518;BME280;37075;44.084;2.962;2023-10-19T05:00:00;95938.56;;;15.68;70.90
50518;BME280;37075;44.084;2.962;2023-10-19T05:02:48;95926.00;;;15.67;70.39
50518;BME280;37075;44.084;2.962;2023-10-19T05:05:36;95917.41;;;15.65;70.53
50518;BME280;37075;44.084;2.962;2023-10-19T05:08:22;95906.81;;;15.64;70.37
50518;BME280;37075;44.084;2.962;2023-10-19T05:11:09;95891.50;;;15.63;70.33
50518;BME280;37075;44.084;2.962;2023-10-19T05:13:55;95889.53;;;15.63;69.96
50518;BME280;37075;44.084;2.962;2023-10-19T05:16:41;95879.34;;;15.60;70.11
50518;BME280;37075;44.084;2.962;2023-10-19T05:19:28;95868.78;;;15.59;69.95
50518;BME280;37075;44.084;2.962;2023-10-19T05:22:16;95862.88;;;15.57;69.77
50518;BME280;37075;44.084;2.962;2023-10-19T05:25:01;95859.00;;;15.54;69.73
50518;BME280;37075;44.084;2.962;2023-10-19T05:27:49;95854.69;;;15.53;69.92
50518;BME280;37075;44.084;2.962;2023-10-19T05:30:35;95850.78;;;15.51;70.00
50518;BME280;37075;44.084;2.962;2023-10-19T05:33:21;95840.22;;;15.49;69.90
50518;BME280;37075;44.084;2.962;2023-10-19T05:36:09;95825.78;;;15.41;70.71
50518;BME280;37075;44.084;2.962;2023-10-19T05:38:56;95823.03;;;15.41;70.62
50518;BME280;37075;44.084;2.962;2023-10-19T05:41:42;95812.84;;;15.42;70.42
50518;BME280;37075;44.084;2.962;2023-10-19T05:44:28;95802.63;;;15.42;70.77
50518;BME280;37075;44.084;2.962;2023-10-19T05:47:15;95788.06;;;15.46;70.58
50518;BME280;37075;44.084;2.962;2023-10-19T05:50:00;95786.47;;;15.48;70.85
50518;BME280;37075;44.084;2.962;2023-10-19T05:52:49;95781.75;;;15.49;71.43
50518;BME280;37075;44.084;2.962;2023-10-19T05:55:36;95785.63;;;15.51;71.03
50518;BME280;37075;44.084;2.962;2023-10-19T05:58:24;95793.09;;;15.51;71.88
50518;BME280;37075;44.084;2.962;2023-10-19T06:01:09;95777.81;;;15.50;71.87
50518;BME280;37075;44.084;2.962;2023-10-19T06:04:14;95784.03;;;15.54;71.50
50518;BME280;37075;44.084;2.962;2023-10-19T06:07:00;95796.63;;;15.51;72.13
50518;BME280;37075;44.084;2.962;2023-10-19T06:09:48;95792.38;;;15.47;72.61
50518;BME280;37075;44.084;2.962;2023-10-19T06:12:34;95782.50;;;15.49;72.22
50518;BME280;37075;44.084;2.962;2023-10-19T06:15:22;95790.66;;;15.56;72.04
50518;BME280;37075;44.084;2.962;2023-10-19T06:18:09;95790.25;;;15.61;72.06
50518;BME280;37075;44.084;2.962;2023-10-19T06:20:55;95787.81;;;15.67;72.10
50518;BME280;37075;44.084;2.962;2023-10-19T06:23:41;95784.59;;;15.72;71.84
50518;BME280;37075;44.084;2.962;2023-10-19T06:26:28;95781.38;;;15.77;71.96
50518;BME280;37075;44.084;2.962;2023-10-19T06:29:14;95783.66;;;15.82;71.93
50518;BME280;37075;44.084;2.962;2023-10-19T06:32:00;95785.16;;;15.87;71.92
50518;BME280;37075;44.084;2.962;2023-10-19T06:34:46;95772.94;;;15.91;71.84
50518;BME280;37075;44.084;2.962;2023-10-19T06:37:32;95764.63;;;15.95;72.07
50518;BME280;37075;44.084;2.962;2023-10-19T06:40:18;95761.41;;;16.00;71.78
50518;BME280;37075;44.084;2.962;2023-10-19T06:43:06;95753.09;;;16.03;71.94
50518;BME280;37075;44.084;2.962;2023-10-19T06:45:52;95734.63;;;16.04;72.02
50518;BME280;37075;44.084;2.962;2023-10-19T06:48:39;95729.84;;;16.08;72.15
50518;BME280;37075;44.084;2.962;2023-10-19T06:51:25;95741.56;;;16.12;71.85
50518;BME280;37075;44.084;2.962;2023-10-19T06:54:10;95748.22;;;16.15;71.98
50518;BME280;37075;44.084;2.962;2023-10-19T06:56:57;95749.34;;;16.17;72.22
50518;BME280;37075;44.084;2.962;2023-10-19T06:59:44;95752.88;;;16.18;72.08
50518;BME280;37075;44.084;2.962;2023-10-19T07:02:30;95743.03;;;16.20;72.52
50518;BME280;37075;44.084;2.962;2023-10-19T07:05:16;95730.41;;;16.23;72.30
50518;BME280;37075;44.084;2.962;2023-10-19T07:08:06;95716.16;;;16.28;72.08
50518;BME280;37075;44.084;2.962;2023-10-19T07:10:52;95715.25;;;16.34;72.41
50518;BME280;37075;44.084;2.962;2023-10-19T07:13:38;95725.41;;;16.38;72.17
50518;BME280;37075;44.084;2.962;2023-10-19T07:16:25;95736.38;;;16.41;72.47
50518;BME280;37075;44.084;2.962;2023-10-19T07:19:11;95761.50;;;16.43;72.47
50518;BME280;37075;44.084;2.962;2023-10-19T07:21:58;95783.53;;;16.43;72.94
50518;BME280;37075;44.084;2.962;2023-10-19T07:24:48;95810.97;;;16.47;72.87
50518;BME280;37075;44.084;2.962;2023-10-19T07:27:35;95801.53;;;16.48;73.08
50518;BME280;37075;44.084;2.962;2023-10-19T07:30:21;95798.69;;;16.51;72.85
50518;BME280;37075;44.084;2.962;2023-10-19T07:33:12;95800.69;;;16.51;73.25
50518;BME280;37075;44.084;2.962;2023-10-19T07:36:01;95808.81;;;16.58;72.53
50518;BME280;37075;44.084;2.962;2023-10-19T07:38:52;95806.72;;;16.65;73.11
50518;BME280;37075;44.084;2.962;2023-10-19T07:41:39;95790.13;;;16.73;73.00
50518;BME280;37075;44.084;2.962;2023-10-19T07:44:24;95795.06;;;16.81;72.99
50518;BME280;37075;44.084;2.962;2023-10-19T07:47:12;95796.13;;;16.87;73.06
50518;BME280;37075;44.084;2.962;2023-10-19T07:50:00;95791.72;;;16.93;72.91
50518;BME280;37075;44.084;2.962;2023-10-19T07:52:49;95794.75;;;16.99;72.88
50518;BME280;37075;44.084;2.962;2023-10-19T07:55:35;95797.00;;;17.04;72.73
50518;BME280;37075;44.084;2.962;2023-10-19T07:58:23;95796.94;;;17.08;72.61
50518;BME280;37075;44.084;2.962;2023-10-19T08:01:09;95800.41;;;17.12;72.64
50518;BME280;37075;44.084;2.962;2023-10-19T08:03:56;95786.97;;;17.14;72.41
50518;BME280;37075;44.084;2.962;2023-10-19T08:06:43;95779.84;;;17.16;72.18
50518;BME280;37075;44.084;2.962;2023-10-19T08:09:29;95774.72;;;17.18;72.37
50518;BME280;37075;44.084;2.962;2023-10-19T08:12:19;95768.78;;;17.20;72.52
50518;BME280;37075;44.084;2.962;2023-10-19T08:15:06;95757.69;;;17.23;72.59
50518;BME280;37075;44.084;2.962;2023-10-19T08:17:52;95758.72;;;17.30;72.56
50518;BME280;37075;44.084;2.962;2023-10-19T08:20:39;95765.28;;;17.36;72.69
50518;BME280;37075;44.084;2.962;2023-10-19T08:23:26;95767.19;;;17.39;72.57
50518;BME280;37075;44.084;2.962;2023-10-19T08:26:12;95762.38;;;17.43;72.56
50518;BME280;37075;44.084;2.962;2023-10-19T08:28:59;95758.03;;;17.45;72.27
50518;BME280;37075;44.084;2.962;2023-10-19T08:31:45;95768.19;;;17.48;72.41
50518;BME280;37075;44.084;2.962;2023-10-19T08:34:33;95777.59;;;17.51;72.66
50518;BME280;37075;44.084;2.962;2023-10-19T08:37:20;95774.13;;;17.47;72.59
50518;BME280;37075;44.084;2.962;2023-10-19T08:40:09;95776.38;;;17.52;72.79
50518;BME280;37075;44.084;2.962;2023-10-19T08:42:59;95777.06;;;17.56;72.92
50518;BME280;37075;44.084;2.962;2023-10-19T08:45:45;95771.47;;;17.60;72.87
50518;BME280;37075;44.084;2.962;2023-10-19T08:48:33;95773.69;;;17.68;72.70
50518;BME280;37075;44.084;2.962;2023-10-19T08:51:19;95773.53;;;17.75;72.80
50518;BME280;37075;44.084;2.962;2023-10-19T08:54:04;95782.00;;;17.84;72.80
50518;BME280;37075;44.084;2.962;2023-10-19T08:56:52;95788.47;;;17.94;73.02
50518;BME280;37075;44.084;2.962;2023-10-19T08:59:40;95800.50;;;18.04;72.58
50518;BME280;37075;44.084;2.962;2023-10-19T09:02:26;95791.59;;;18.12;72.83
50518;BME280;37075;44.084;2.962;2023-10-19T09:05:12;95787.47;;;18.21;72.55
50518;BME280;37075;44.084;2.962;2023-10-19T09:08:04;95784.47;;;18.31;72.99
50518;BME280;37075;44.084;2.962;2023-10-19T09:10:51;95777.91;;;18.41;72.62
50518;BME280;37075;44.084;2.962;2023-10-19T09:13:58;95777.31;;;18.50;72.62
50518;BME280;37075;44.084;2.962;2023-10-19T09:16:53;95776.69;;;18.59;72.74
50518;BME280;37075;44.084;2.962;2023-10-19T09:19:41;95780.84;;;18.67;72.43
50518;BME280;37075;44.084;2.962;2023-10-19T09:22:32;95782.25;;;18.75;72.45
50518;BME280;37075;44.084;2.962;2023-10-19T09:25:21;95774.44;;;18.86;72.50
50518;BME280;37075;44.084;2.962;2023-10-19T09:28:07;95765.06;;;18.96;72.59
50518;BME280;37075;44.084;2.962;2023-10-19T09:30:56;95753.66;;;19.10;72.39
50518;BME280;37075;44.084;2.962;2023-10-19T09:33:43;95753.69;;;19.23;72.39
50518;BME280;37075;44.084;2.962;2023-10-19T09:36:29;95742.34;;;19.34;72.54
50518;BME280;37075;44.084;2.962;2023-10-19T09:39:15;95733.50;;;19.39;72.31
50518;BME280;37075;44.084;2.962;2023-10-19T09:42:02;95725.31;;;19.48;72.04
50518;BME280;37075;44.084;2.962;2023-10-19T09:44:51;95717.63;;;19.56;72.05
50518;BME280;37075;44.084;2.962;2023-10-19T09:47:41;95714.97;;;19.65;72.12
50518;BME280;37075;44.084;2.962;2023-10-19T09:50:30;95698.16;;;19.72;72.15
50518;BME280;37075;44.084;2.962;2023-10-19T09:53:17;95691.22;;;19.80;72.28
50518;BME280;37075;44.084;2.962;2023-10-19T09:56:05;95679.91;;;19.87;72.07
50518;BME280;37075;44.084;2.962;2023-10-19T09:58:53;95675.03;;;19.91;71.93
50518;BME280;37075;44.084;2.962;2023-10-19T10:04:45;95671.25;;;19.98;71.63
50518;BME280;37075;44.084;2.962;2023-10-19T10:07:32;95680.66;;;20.00;71.44
50518;BME280;37075;44.084;2.962;2023-10-19T10:10:18;95679.44;;;20.01;71.37
50518;BME280;37075;44.084;2.962;2023-10-19T10:16:04;95691.28;;;20.02;71.16
50518;BME280;37075;44.084;2.962;2023-10-19T10:18:54;95690.81;;;20.03;70.99
50518;BME280;37075;44.084;2.962;2023-10-19T10:21:58;95691.63;;;20.04;71.09
50518;BME280;37075;44.084;2.962;2023-10-19T10:24:53;95686.75;;;20.08;71.22
50518;BME280;37075;44.084;2.962;2023-10-19T10:27:42;95676.66;;;20.14;71.41
50518;BME280;37075;44.084;2.962;2023-10-19T10:30:34;95668.44;;;20.23;71.34
50518;BME280;37075;44.084;2.962;2023-10-19T10:36:21;95654.56;;;20.36;71.27
50518;BME280;37075;44.084;2.962;2023-10-19T10:39:08;95656.03;;;20.41;71.24
50518;BME280;37075;44.084;2.962;2023-10-19T10:42:00;95656.66;;;20.45;71.23
50518;BME280;37075;44.084;2.962;2023-10-19T10:44:48;95650.56;;;20.50;71.11
50518;BME280;37075;44.084;2.962;2023-10-19T10:47:36;95639.16;;;20.48;70.92
50518;BME280;37075;44.084;2.962;2023-10-19T10:50:23;95635.81;;;20.53;71.11
50518;BME280;37075;44.084;2.962;2023-10-19T10:53:10;95634.94;;;20.56;71.05
50518;BME280;37075;44.084;2.962;2023-10-19T10:56:01;95634.03;;;20.59;71.15
50518;BME280;37075;44.084;2.962;2023-10-19T10:58:46;95634.69;;;20.63;70.62
50518;BME280;37075;44.084;2.962;2023-10-19T11:01:32;95628.56;;;20.68;70.06
50518;BME280;37075;44.084;2.962;2023-10-19T11:04:18;95614.44;;;20.75;69.95
50518;BME280;37075;44.084;2.962;2023-10-19T11:07:04;95608.66;;;20.82;69.92
50518;BME280;37075;44.084;2.962;2023-10-19T11:09:50;95596.06;;;20.90;69.63
50518;BME280;37075;44.084;2.962;2023-10-19T11:12:37;95597.81;;;20.97;68.94
50518;BME280;37075;44.084;2.962;2023-10-19T11:15:23;95587.34;;;21.01;68.16
50518;BME280;37075;44.084;2.962;2023-10-19T11:18:09;95574.44;;;21.07;68.06
50518;BME280;37075;44.084;2.962;2023-10-19T11:20:55;95551.69;;;21.12;67.63
50518;BME280;37075;44.084;2.962;2023-10-19T11:23:44;95557.72;;;21.20;68.01
50518;BME280;37075;44.084;2.962;2023-10-19T11:26:31;95554.69;;;21.27;67.80
50518;BME280;37075;44.084;2.962;2023-10-19T11:29:26;95538.56;;;21.35;67.41
50518;BME280;37075;44.084;2.962;2023-10-19T11:32:12;95532.28;;;21.43;67.55
50518;BME280;37075;44.084;2.962;2023-10-19T11:34:58;95512.56;;;21.50;67.22
50518;BME280;37075;44.084;2.962;2023-10-19T11:37:47;95496.38;;;21.58;66.98
50518;BME280;37075;44.084;2.962;2023-10-19T11:40:52;95499.34;;;21.64;66.75
50518;BME280;37075;44.084;2.962;2023-10-19T11:43:38;95505.81;;;21.70;65.69
50518;BME280;37075;44.084;2.962;2023-10-19T11:46:25;95511.06;;;21.77;66.04
50518;BME280;37075;44.084;2.962;2023-10-19T11:49:11;95536.50;;;21.84;66.08
50518;BME280;37075;44.084;2.962;2023-10-19T11:52:15;95536.69;;;21.90;65.58
50518;BME280;37075;44.084;2.962;2023-10-19T11:55:04;95529.75;;;21.95;65.31
50518;BME280;37075;44.084;2.962;2023-10-19T11:57:50;95519.75;;;22.06;65.80
50518;BME280;37075;44.084;2.962;2023-10-19T12:00:36;95511.56;;;22.30;65.94
50518;BME280;37075;44.084;2.962;2023-10-19T12:03:24;95508.91;;;22.54;65.80
50518;BME280;37075;44.084;2.962;2023-10-19T12:06:11;95493.13;;;22.78;65.60
50518;BME280;37075;44.084;2.962;2023-10-19T12:08:58;95464.34;;;23.00;64.51
50518;BME280;37075;44.084;2.962;2023-10-19T12:11:50;95467.53;;;23.17;63.63
50518;BME280;37075;44.084;2.962;2023-10-19T12:14:38;95463.03;;;23.19;61.71
50518;BME280;37075;44.084;2.962;2023-10-19T12:17:24;95482.91;;;23.27;61.79
50518;BME280;37075;44.084;2.962;2023-10-19T12:20:12;95475.34;;;23.27;59.74
50518;BME280;37075;44.084;2.962;2023-10-19T12:22:58;95436.81;;;23.35;58.98
50518;BME280;37075;44.084;2.962;2023-10-19T12:25:45;95425.03;;;23.40;59.46
50518;BME280;37075;44.084;2.962;2023-10-19T12:28:31;95422.50;;;23.51;59.93
50518;BME280;37075;44.084;2.962;2023-10-19T12:31:35;95417.00;;;23.66;60.40
50518;BME280;37075;44.084;2.962;2023-10-19T12:34:24;95410.13;;;23.76;59.01
50518;BME280;37075;44.084;2.962;2023-10-19T12:37:11;95416.09;;;23.84;59.07
50518;BME280;37075;44.084;2.962;2023-10-19T12:39:57;95407.56;;;23.87;57.88
50518;BME280;37075;44.084;2.962;2023-10-19T12:42:44;95414.19;;;23.90;58.50
50518;BME280;37075;44.084;2.962;2023-10-19T12:45:30;95423.19;;;23.85;55.77
50518;BME280;37075;44.084;2.962;2023-10-19T12:48:21;95422.81;;;23.77;56.49
50518;BME280;37075;44.084;2.962;2023-10-19T12:51:10;95437.97;;;23.76;55.92
50518;BME280;37075;44.084;2.962;2023-10-19T12:54:00;95445.38;;;23.79;56.40
50518;BME280;37075;44.084;2.962;2023-10-19T12:56:47;95428.94;;;23.81;55.60
50518;BME280;37075;44.084;2.962;2023-10-19T12:59:34;95415.63;;;23.85;56.62
50518;BME280;37075;44.084;2.962;2023-10-19T13:02:22;95412.34;;;23.87;54.60
50518;BME280;37075;44.084;2.962;2023-10-19T13:05:08;95404.97;;;23.84;54.83
50518;BME280;37075;44.084;2.962;2023-10-19T13:07:56;95402.47;;;23.86;55.54
50518;BME280;37075;44.084;2.962;2023-10-19T13:10:44;95402.28;;;23.89;55.59
50518;BME280;37075;44.084;2.962;2023-10-19T13:13:30;95381.34;;;23.94;55.04
50518;BME280;37075;44.084;2.962;2023-10-19T13:16:16;95395.59;;;23.96;55.17
50518;BME280;37075;44.084;2.962;2023-10-19T13:19:01;95384.06;;;24.03;55.70
50518;BME280;37075;44.084;2.962;2023-10-19T13:21:56;95395.88;;;24.13;55.75
50518;BME280;37075;44.084;2.962;2023-10-19T13:24:47;95395.97;;;24.18;55.89
50518;BME280;37075;44.084;2.962;2023-10-19T13:27:34;95403.25;;;24.16;53.47
50518;BME280;37075;44.084;2.962;2023-10-19T13:30:21;95408.41;;;23.93;52.51
50518;BME280;37075;44.084;2.962;2023-10-19T13:33:08;95385.69;;;23.95;53.03
50518;BME280;37075;44.084;2.962;2023-10-19T13:35:55;95385.22;;;23.96;51.25
50518;BME280;37075;44.084;2.962;2023-10-19T13:38:41;95389.53;;;23.97;53.13
50518;BME280;37075;44.084;2.962;2023-10-19T13:41:27;95387.72;;;23.94;52.24
50518;BME280;37075;44.084;2.962;2023-10-19T13:44:14;95392.59;;;23.99;52.75
50518;BME280;37075;44.084;2.962;2023-10-19T13:47:03;95387.72;;;23.94;51.69
50518;BME280;37075;44.084;2.962;2023-10-19T13:49:49;95402.84;;;23.93;52.76
50518;BME280;37075;44.084;2.962;2023-10-19T13:52:35;95397.38;;;23.84;51.02
50518;BME280;37075;44.084;2.962;2023-10-19T13:55:21;95404.47;;;23.85;52.44
50518;BME280;37075;44.084;2.962;2023-10-19T13:58:07;95396.59;;;23.84;51.62
50518;BME280;37075;44.084;2.962;2023-10-19T14:00:55;95382.88;;;23.80;51.51
50518;BME280;37075;44.084;2.962;2023-10-19T14:03:41;95370.28;;;23.70;51.88
50518;BME280;37075;44.084;2.962;2023-10-19T14:06:27;95365.22;;;23.68;52.21
50518;BME280;37075;44.084;2.962;2023-10-19T14:09:13;95364.41;;;23.68;52.81
50518;BME280;37075;44.084;2.962;2023-10-19T14:11:59;95368.91;;;23.65;52.38
50518;BME280;37075;44.084;2.962;2023-10-19T14:14:48;95366.13;;;23.65;52.36
50518;BME280;37075;44.084;2.962;2023-10-19T14:17:35;95343.09;;;23.65;53.07
50518;BME280;37075;44.084;2.962;2023-10-19T14:20:21;95336.13;;;23.70;52.86
50518;BME280;37075;44.084;2.962;2023-10-19T14:23:08;95333.34;;;23.70;53.22
50518;BME280;37075;44.084;2.962;2023-10-19T14:25:54;95319.59;;;23.66;52.44
50518;BME280;37075;44.084;2.962;2023-10-19T14:28:59;95303.00;;;23.57;52.19
50518;BME280;37075;44.084;2.962;2023-10-19T14:31:46;95277.06;;;23.51;52.29
50518;BME280;37075;44.084;2.962;2023-10-19T14:34:33;95250.00;;;23.51;52.95
50518;BME280;37075;44.084;2.962;2023-10-19T14:37:19;95236.09;;;23.51;52.97
50518;BME280;37075;44.084;2.962;2023-10-19T14:40:08;95222.38;;;23.48;52.99
50518;BME280;37075;44.084;2.962;2023-10-19T14:42:55;95192.25;;;23.46;52.56
50518;BME280;37075;44.084;2.962;2023-10-19T14:45:42;95170.66;;;23.41;52.55
50518;BME280;37075;44.084;2.962;2023-10-19T14:48:28;95168.06;;;23.37;52.58
50518;BME280;37075;44.084;2.962;2023-10-19T14:51:15;95168.25;;;23.34;52.29
50518;BME280;37075;44.084;2.962;2023-10-19T14:54:01;95157.59;;;23.32;52.93
50518;BME280;37075;44.084;2.962;2023-10-19T14:56:47;95173.06;;;23.33;52.59
50518;BME280;37075;44.084;2.962;2023-10-19T14:59:33;95157.91;;;23.34;52.56